sensor_id;sensor_type;location;lat;lon;timestamp;pressure;altitude;pressure_sealevel;temperature;humidity
86048;BME280;76643;42.822;23.352;2024-02-16T16:48:08;96027.19;;;24.63;35.59
86048;BME280;76643;42.822;23.352;2024-02-16T16:50:34;96025.13;;;24.68;35.44
86048;BME280;76643;42.822;23.352;2024-02-16T16:53:01;96029.16;;;24.74;35.01
86048;BME280;76643;42.822;23.352;2024-02-16T16:55:29;96033.97;;;24.81;34.93
86048;BME280;76643;42.822;23.352;2024-02-16T16:57:55;96029.91;;;24.84;35.30
86048;BME280;76643;42.822;23.352;2024-02-16T17:01:30;96035.66;;;17.80;29.46
86048;BME280;76643;42.822;23.352;2024-02-16T17:03:56;96046.66;;;16.06;31.94
86048;BME280;76643;42.822;23.352;2024-02-16T17:06:21;96069.25;;;12.46;39.35
86048;BME280;76643;42.822;23.352;2024-02-16T17:08:48;96068.84;;;10.65;44.68
86048;BME280;76643;42.822;23.352;2024-02-16T17:11:14;96074.78;;;9.92;46.36
86048;BME280;76643;42.822;23.352;2024-02-16T17:13:39;96094.06;;;9.13;49.53
86048;BME280;76643;42.822;23.352;2024-02-16T17:16:05;96096.75;;;8.89;49.26
86048;BME280;76643;42.822;23.352;2024-02-16T17:18:30;96093.97;;;8.72;51.26
86048;BME280;76643;42.822;23.352;2024-02-16T17:20:59;96093.06;;;8.24;52.71
86048;BME280;76643;42.822;23.352;2024-02-16T17:23:26;96100.75;;;7.88;53.33
86048;BME280;76643;42.822;23.352;2024-02-16T17:25:52;96094.38;;;7.65;53.38
86048;BME280;76643;42.822;23.352;2024-02-16T17:28:17;96094.31;;;7.47;55.73
86048;BME280;76643;42.822;23.352;2024-02-16T17:30:43;96099.09;;;7.13;56.29
86048;BME280;76643;42.822;23.352;2024-02-16T17:33:11;96101.50;;;7.08;56.96
86048;BME280;76643;42.822;23.352;2024-02-16T17:35:37;96098.97;;;6.95;57.59
86048;BME280;76643;42.822;23.352;2024-02-16T17:38:06;96105.94;;;6.88;57.58
86048;BME280;76643;42.822;23.352;2024-02-16T17:40:32;96100.06;;;6.80;56.57
86048;BME280;76643;42.822;23.352;2024-02-16T17:42:57;96094.91;;;6.74;57.52
86048;BME280;76643;42.822;23.352;2024-02-16T17:45:24;96111.16;;;6.81;56.90
86048;BME280;76643;42.822;23.352;2024-02-16T17:47:50;96109.22;;;6.70;57.39
86048;BME280;76643;42.822;23.352;2024-02-16T17:50:16;96111.00;;;6.69;58.57
86048;BME280;76643;42.822;23.352;2024-02-16T17:52:42;96116.50;;;6.73;58.20
86048;BME280;76643;42.822;23.352;2024-02-16T17:55:08;96110.78;;;6.71;58.00
86048;BME280;76643;42.822;23.352;2024-02-16T17:57:34;96123.06;;;6.69;57.66
86048;BME280;76643;42.822;23.352;2024-02-16T17:59:59;96115.53;;;6.67;57.55
86048;BME280;76643;42.822;23.352;2024-02-16T18:02:25;96116.94;;;6.70;58.18
86048;BME280;76643;42.822;23.352;2024-02-16T18:04:50;96115.53;;;6.67;57.99
86048;BME280;76643;42.822;23.352;2024-02-16T18:07:16;96123.47;;;6.66;57.98
86048;BME280;76643;42.822;23.352;2024-02-16T18:09:45;96126.03;;;6.66;57.23
86048;BME280;76643;42.822;23.352;2024-02-16T18:12:11;96131.00;;;6.61;58.10
86048;BME280;76643;42.822;23.352;2024-02-16T18:14:41;96130.22;;;6.60;58.48
86048;BME280;76643;42.822;23.352;2024-02-16T18:17:11;96124.66;;;6.63;57.39
86048;BME280;76643;42.822;23.352;2024-02-16T18:19:41;96134.19;;;6.50;57.61
86048;BME280;76643;42.822;23.352;2024-02-16T18:22:07;96126.31;;;6.32;58.85
86048;BME280;76643;42.822;23.352;2024-02-16T18:24:34;96119.78;;;6.29;58.77
86048;BME280;76643;42.822;23.352;2024-02-16T18:26:59;96125.13;;;6.28;59.68
86048;BME280;76643;42.822;23.352;2024-02-16T18:29:26;96125.16;;;6.21;59.83
86048;BME280;76643;42.822;23.352;2024-02-16T18:31:51;96130.50;;;6.13;59.74
86048;BME280;76643;42.822;23.352;2024-02-16T18:34:17;96129.31;;;6.22;59.64
86048;BME280;76643;42.822;23.352;2024-02-16T18:36:42;96130.50;;;6.26;58.69
86048;BME280;76643;42.822;23.352;2024-02-16T18:39:08;96124.38;;;6.21;60.28
86048;BME280;76643;42.822;23.352;2024-02-16T18:41:34;96130.09;;;6.29;57.94
86048;BME280;76643;42.822;23.352;2024-02-16T18:44:00;96131.06;;;6.35;58.33
86048;BME280;76643;42.822;23.352;2024-02-16T18:46:26;96132.66;;;6.29;58.71
86048;BME280;76643;42.822;23.352;2024-02-16T18:48:51;96139.59;;;6.22;58.73
86048;BME280;76643;42.822;23.352;2024-02-16T18:51:17;96140.75;;;6.33;58.31
86048;BME280;76643;42.822;23.352;2024-02-16T18:53:43;96142.75;;;6.24;59.45
86048;BME280;76643;42.822;23.352;2024-02-16T18:56:09;96139.00;;;6.07;60.62
86048;BME280;76643;42.822;23.352;2024-02-16T18:58:35;96143.38;;;5.87;61.80
86048;BME280;76643;42.822;23.352;2024-02-16T19:01:00;96153.44;;;5.75;61.84
86048;BME280;76643;42.822;23.352;2024-02-16T19:03:26;96164.34;;;5.91;61.45
86048;BME280;76643;42.822;23.352;2024-02-16T19:05:52;96154.84;;;5.84;61.49
86048;BME280;76643;42.822;23.352;2024-02-16T19:08:17;96158.41;;;5.90;60.39
86048;BME280;76643;42.822;23.352;2024-02-16T19:10:44;96162.34;;;5.86;60.17
86048;BME280;76643;42.822;23.352;2024-02-16T19:13:10;96169.28;;;5.86;60.34
86048;BME280;76643;42.822;23.352;2024-02-16T19:15:37;96168.06;;;5.81;61.60
86048;BME280;76643;42.822;23.352;2024-02-16T19:18:02;96172.81;;;5.84;60.60
86048;BME280;76643;42.822;23.352;2024-02-16T19:20:32;96166.50;;;5.87;60.04
86048;BME280;76643;42.822;23.352;2024-02-16T19:22:59;96158.75;;;5.80;60.62
86048;BME280;76643;42.822;23.352;2024-02-16T19:25:24;96169.63;;;5.63;61.42
86048;BME280;76643;42.822;23.352;2024-02-16T19:27:51;96166.66;;;5.59;62.11
86048;BME280;76643;42.822;23.352;2024-02-16T19:30:20;96168.56;;;5.31;63.25
86048;BME280;76643;42.822;23.352;2024-02-16T19:32:46;96169.34;;;5.32;62.97
86048;BME280;76643;42.822;23.352;2024-02-16T19:35:11;96176.84;;;5.27;63.13
86048;BME280;76643;42.822;23.352;2024-02-16T19:37:42;96174.84;;;5.16;63.71
86048;BME280;76643;42.822;23.352;2024-02-16T19:40:09;96177.75;;;5.00;64.15
86048;BME280;76643;42.822;23.352;2024-02-16T19:42:34;96178.09;;;4.90;65.17
86048;BME280;76643;42.822;23.352;2024-02-16T19:45:00;96186.03;;;4.95;63.92
86048;BME280;76643;42.822;23.352;2024-02-16T19:47:26;96188.59;;;4.95;64.00
86048;BME280;76643;42.822;23.352;2024-02-16T19:49:51;96189.72;;;4.86;65.83
86048;BME280;76643;42.822;23.352;2024-02-16T19:52:17;96190.94;;;4.97;64.49
86048;BME280;76643;42.822;23.352;2024-02-16T19:54:46;96189.19;;;4.97;64.97
86048;BME280;76643;42.822;23.352;2024-02-16T19:57:12;96187.38;;;4.84;65.16
86048;BME280;76643;42.822;23.352;2024-02-16T19:59:37;96187.31;;;4.78;65.17
86048;BME280;76643;42.822;23.352;2024-02-16T20:02:03;96190.22;;;4.68;65.74
86048;BME280;76643;42.822;23.352;2024-02-16T20:04:29;96189.63;;;4.66;65.70
86048;BME280;76643;42.822;23.352;2024-02-16T20:06:54;96187.25;;;4.65;65.90
86048;BME280;76643;42.822;23.352;2024-02-16T20:09:20;96196.09;;;4.56;65.75
86048;BME280;76643;42.822;23.352;2024-02-16T20:11:45;96196.81;;;4.43;66.67
86048;BME280;76643;42.822;23.352;2024-02-16T20:14:11;96192.69;;;4.49;66.15
86048;BME280;76643;42.822;23.352;2024-02-16T20:16:37;96196.56;;;4.38;66.73
86048;BME280;76643;42.822;23.352;2024-02-16T20:19:03;96198.16;;;4.39;67.30
86048;BME280;76643;42.822;23.352;2024-02-16T20:21:35;96187.81;;;4.26;68.09
86048;BME280;76643;42.822;23.352;2024-02-16T20:24:02;96198.19;;;4.18;68.45
86048;BME280;76643;42.822;23.352;2024-02-16T20:26:28;96201.59;;;4.25;66.96
86048;BME280;76643;42.822;23.352;2024-02-16T20:28:53;96199.34;;;4.16;68.39
86048;BME280;76643;42.822;23.352;2024-02-16T20:31:19;96200.88;;;4.10;67.83
86048;BME280;76643;42.822;23.352;2024-02-16T20:33:45;96200.66;;;4.05;68.55
86048;BME280;76643;42.822;23.352;2024-02-16T20:36:11;96201.41;;;3.99;67.86
86048;BME280;76643;42.822;23.352;2024-02-16T20:38:36;96200.63;;;3.99;68.85
86048;BME280;76643;42.822;23.352;2024-02-16T20:41:04;96197.88;;;4.00;68.84
86048;BME280;76643;42.822;23.352;2024-02-16T20:43:31;96197.59;;;3.95;67.72
86048;BME280;76643;42.822;23.352;2024-02-16T20:45:57;96198.19;;;3.90;68.82
86048;BME280;76643;42.822;23.352;2024-02-16T20:48:23;96201.47;;;3.84;68.98
86048;BME280;76643;42.822;23.352;2024-02-16T20:50:49;96205.94;;;3.76;69.75
86048;BME280;76643;42.822;23.352;2024-02-16T20:53:15;96198.25;;;3.76;69.58
86048;BME280;76643;42.822;23.352;2024-02-16T20:55:41;96203.31;;;3.69;68.99
86048;BME280;76643;42.822;23.352;2024-02-16T20:58:07;96201.47;;;3.63;69.36
86048;BME280;76643;42.822;23.352;2024-02-16T21:00:32;96202.22;;;3.57;69.58
86048;BME280;76643;42.822;23.352;2024-02-16T21:02:58;96203.13;;;3.50;70.32
86048;BME280;76643;42.822;23.352;2024-02-16T21:05:23;96202.09;;;3.44;70.52
86048;BME280;76643;42.822;23.352;2024-02-16T21:07:50;96209.69;;;3.38;70.24
86048;BME280;76643;42.822;23.352;2024-02-16T21:10:16;96212.63;;;3.35;70.90
86048;BME280;76643;42.822;23.352;2024-02-16T21:12:42;96215.19;;;3.35;71.61
86048;BME280;76643;42.822;23.352;2024-02-16T21:15:07;96209.06;;;3.36;71.13
86048;BME280;76643;42.822;23.352;2024-02-16T21:17:34;96208.66;;;3.32;70.74
86048;BME280;76643;42.822;23.352;2024-02-16T21:19:59;96206.50;;;3.36;70.50
86048;BME280;76643;42.822;23.352;2024-02-16T21:22:25;96212.19;;;3.31;71.11
86048;BME280;76643;42.822;23.352;2024-02-16T21:24:50;96212.28;;;3.23;72.16
86048;BME280;76643;42.822;23.352;2024-02-16T21:27:16;96207.38;;;3.22;71.81
86048;BME280;76643;42.822;23.352;2024-02-16T21:29:41;96206.13;;;3.18;71.24
86048;BME280;76643;42.822;23.352;2024-02-16T21:32:09;96211.16;;;3.11;72.20
86048;BME280;76643;42.822;23.352;2024-02-16T21:34:34;96212.66;;;3.06;71.80
86048;BME280;76643;42.822;23.352;2024-02-16T21:37:00;96208.72;;;3.03;71.99
86048;BME280;76643;42.822;23.352;2024-02-16T21:39:28;96220.53;;;3.04;72.82
86048;BME280;76643;42.822;23.352;2024-02-16T21:41:54;96213.03;;;3.03;71.91
86048;BME280;76643;42.822;23.352;2024-02-16T21:44:19;96217.16;;;3.04;71.41
86048;BME280;76643;42.822;23.352;2024-02-16T21:46:46;96224.84;;;3.04;71.46
86048;BME280;76643;42.822;23.352;2024-02-16T21:49:11;96224.97;;;2.96;72.79
86048;BME280;76643;42.822;23.352;2024-02-16T21:51:37;96226.81;;;2.87;71.81
86048;BME280;76643;42.822;23.352;2024-02-16T21:54:06;96220.63;;;2.81;72.66
86048;BME280;76643;42.822;23.352;2024-02-16T21:56:32;96225.56;;;2.83;73.05
86048;BME280;76643;42.822;23.352;2024-02-16T21:58:59;96229.00;;;2.75;73.54
86048;BME280;76643;42.822;23.352;2024-02-16T22:01:26;96225.69;;;2.75;72.78
86048;BME280;76643;42.822;23.352;2024-02-16T22:03:53;96222.13;;;2.76;74.02
86048;BME280;76643;42.822;23.352;2024-02-16T22:08:48;96229.38;;;2.72;73.10
86048;BME280;76643;42.822;23.352;2024-02-16T22:11:14;96228.50;;;2.65;72.78
86048;BME280;76643;42.822;23.352;2024-02-16T22:13:44;96234.94;;;2.61;74.56
86048;BME280;76643;42.822;23.352;2024-02-16T22:16:10;96236.06;;;2.73;73.28
86048;BME280;76643;42.822;23.352;2024-02-16T22:18:36;96232.81;;;2.79;72.16
86048;BME280;76643;42.822;23.352;2024-02-16T22:21:08;96242.84;;;2.81;72.62
86048;BME280;76643;42.822;23.352;2024-02-16T22:23:35;96246.13;;;2.75;72.52
86048;BME280;76643;42.822;23.352;2024-02-16T22:26:03;96246.56;;;2.64;73.27
86048;BME280;76643;42.822;23.352;2024-02-16T22:28:29;96248.69;;;2.75;71.82
86048;BME280;76643;42.822;23.352;2024-02-16T22:30:55;96248.84;;;2.59;73.53
86048;BME280;76643;42.822;23.352;2024-02-16T22:33:20;96249.25;;;2.33;73.91
86048;BME280;76643;42.822;23.352;2024-02-16T22:35:46;96252.00;;;2.32;74.66
86048;BME280;76643;42.822;23.352;2024-02-16T22:38:11;96246.78;;;2.25;74.64
86048;BME280;76643;42.822;23.352;2024-02-16T22:40:38;96250.38;;;2.16;75.90
86048;BME280;76643;42.822;23.352;2024-02-16T22:43:03;96247.00;;;2.16;75.50
86048;BME280;76643;42.822;23.352;2024-02-16T22:45:31;96244.47;;;2.16;75.02
86048;BME280;76643;42.822;23.352;2024-02-16T22:47:58;96250.38;;;2.16;75.08
86048;BME280;76643;42.822;23.352;2024-02-16T22:50:23;96248.16;;;2.13;75.06
86048;BME280;76643;42.822;23.352;2024-02-16T22:52:50;96250.44;;;2.08;75.37
86048;BME280;76643;42.822;23.352;2024-02-16T22:55:18;96250.78;;;2.05;75.39
86048;BME280;76643;42.822;23.352;2024-02-16T22:57:44;96252.31;;;1.91;76.23
86048;BME280;76643;42.822;23.352;2024-02-16T23:00:10;96250.75;;;1.90;76.37
86048;BME280;76643;42.822;23.352;2024-02-16T23:02:50;96252.22;;;1.85;76.68
86048;BME280;76643;42.822;23.352;2024-02-16T23:05:16;96246.41;;;1.91;76.71
86048;BME280;76643;42.822;23.352;2024-02-16T23:07:43;96256.69;;;1.83;76.00
86048;BME280;76643;42.822;23.352;2024-02-16T23:10:08;96250.97;;;1.81;76.87
86048;BME280;76643;42.822;23.352;2024-02-16T23:12:36;96252.13;;;1.93;75.66
86048;BME280;76643;42.822;23.352;2024-02-16T23:15:04;96247.38;;;1.90;76.11
86048;BME280;76643;42.822;23.352;2024-02-16T23:17:29;96255.44;;;1.79;76.04
86048;BME280;76643;42.822;23.352;2024-02-16T23:19:55;96257.56;;;1.75;76.58
86048;BME280;76643;42.822;23.352;2024-02-16T23:22:21;96260.28;;;1.74;76.34
86048;BME280;76643;42.822;23.352;2024-02-16T23:24:46;96251.00;;;1.73;77.11
86048;BME280;76643;42.822;23.352;2024-02-16T23:27:11;96256.91;;;1.73;76.39
86048;BME280;76643;42.822;23.352;2024-02-16T23:29:37;96254.69;;;1.70;76.29
86048;BME280;76643;42.822;23.352;2024-02-16T23:32:02;96256.03;;;1.66;77.32
86048;BME280;76643;42.822;23.352;2024-02-16T23:34:28;96255.25;;;1.58;77.38
86048;BME280;76643;42.822;23.352;2024-02-16T23:36:53;96248.56;;;1.57;77.81
86048;BME280;76643;42.822;23.352;2024-02-16T23:39:21;96254.59;;;1.64;77.90
86048;BME280;76643;42.822;23.352;2024-02-16T23:41:46;96253.69;;;1.57;77.71
86048;BME280;76643;42.822;23.352;2024-02-16T23:44:11;96256.22;;;1.57;76.91
86048;BME280;76643;42.822;23.352;2024-02-16T23:46:37;96263.25;;;1.55;76.97
86048;BME280;76643;42.822;23.352;2024-02-16T23:49:02;96269.22;;;1.47;77.93
86048;BME280;76643;42.822;23.352;2024-02-16T23:51:31;96267.91;;;1.51;77.48
86048;BME280;76643;42.822;23.352;2024-02-16T23:53:56;96254.00;;;1.54;77.27
86048;BME280;76643;42.822;23.352;2024-02-16T23:56:22;96260.78;;;1.69;76.72
86048;BME280;76643;42.822;23.352;2024-02-16T23:58:47;96256.03;;;1.66;77.11
